createdAt,value
2023-05-04T00:12:25.306Z,8.42
2023-05-04T00:27:25.784Z,8.34
2023-05-04T00:42:25.650Z,7.69
2023-05-04T00:57:25.443Z,7.82
2023-05-04T01:12:26.023Z,7.92
2023-05-04T01:27:26.000Z,7.02
2023-05-04T01:42:25.844Z,7.24
2023-05-04T01:57:25.915Z,6.75
2023-05-04T02:12:25.201Z,7.58
2023-05-04T02:27:25.336Z,7.78
2023-05-04T02:42:25.566Z,7.38
2023-05-04T02:57:25.625Z,6.93
2023-05-04T03:12:25.937Z,7.06
2023-05-04T03:27:25.667Z,6.99
2023-05-04T03:42:25.161Z,6.77
2023-05-04T03:57:25.494Z,6.95
2023-05-04T04:12:25.800Z,6.76
2023-05-04T04:27:25.896Z,7.15
2023-05-04T04:42:25.245Z,6.42
2023-05-04T04:57:25.509Z,6.82
2023-05-04T05:12:25.551Z,8.49
2023-05-04T05:27:25.869Z,8.44
2023-05-04T05:42:25.748Z,18.9
2023-05-04T05:57:25.213Z,5.25
2023-05-04T06:12:25.481Z,4.38
2023-05-04T06:27:25.703Z,4.89
2023-05-04T06:42:25.848Z,5.69
2023-05-04T06:57:25.644Z,3.84
2023-05-04T07:12:25.910Z,4.48
2023-05-04T07:27:25.258Z,3.01
2023-05-04T07:42:25.335Z,3.07
2023-05-04T07:57:25.369Z,4.35
2023-05-04T08:12:25.493Z,2.34
2023-05-04T08:27:25.518Z,2.95
2023-05-04T08:42:25.309Z,1.97
2023-05-04T08:57:25.681Z,2.65
2023-05-04T09:12:25.812Z,1.48
2023-05-04T10:27:25.966Z,1.75
2023-05-04T10:42:26.036Z,1.86
2023-05-04T10:57:25.999Z,1.76
2023-05-04T11:12:25.168Z,1.5
2023-05-04T11:27:25.270Z,1.59
2023-05-04T11:42:25.214Z,1.57
2023-05-04T11:57:25.181Z,1.63
2023-05-04T12:12:26.078Z,1.99
2023-05-04T12:27:25.993Z,1.75
2023-05-04T12:42:25.817Z,2.35
2023-05-04T12:57:25.543Z,2.41
2023-05-04T13:12:25.403Z,2.57
2023-05-04T13:27:25.186Z,3.19
2023-05-04T13:42:26.005Z,3.49
2023-05-04T13:57:25.993Z,3.38
2023-05-04T14:12:26.012Z,4.17
2023-05-04T14:27:26.048Z,3.97
2023-05-04T14:42:25.176Z,3.66
2023-05-04T14:57:25.351Z,3.67
2023-05-04T15:12:25.553Z,3.72
2023-05-04T15:27:26.208Z,3.92
2023-05-04T15:42:25.625Z,3.97
2023-05-04T15:57:25.910Z,4.26
2023-05-04T16:12:25.363Z,4.57
2023-05-04T16:27:30.955Z,4.61
2023-05-04T17:12:25.986Z,4.53
2023-05-04T17:27:25.788Z,4.67
2023-05-04T17:42:25.727Z,4.28
2023-05-04T17:57:25.782Z,4.57
2023-05-04T18:12:25.559Z,9.64
2023-05-04T18:27:25.864Z,8.81
2023-05-04T18:42:25.763Z,7.94
2023-05-04T18:57:25.591Z,7.12
2023-05-04T19:12:25.657Z,11.46
2023-05-04T19:27:25.450Z,15.76
2023-05-04T19:42:25.328Z,7.39
2023-05-04T19:57:25.377Z,6.77
2023-05-04T20:12:25.626Z,15.12
2023-05-04T20:27:25.549Z,16.34
2023-05-04T20:42:25.837Z,26.66
2023-05-04T20:57:26.009Z,27.97
2023-05-04T21:12:25.167Z,31.88
2023-05-04T21:27:25.328Z,17.25
2023-05-04T21:42:25.429Z,10.42
2023-05-04T21:57:25.800Z,13.52
2023-05-04T22:12:25.237Z,12.02
2023-05-04T22:27:25.292Z,8.28
2023-05-04T22:42:25.797Z,8.87
2023-05-04T22:57:25.555Z,7.69
2023-05-04T23:12:25.521Z,5.62
2023-05-04T23:27:25.519Z,6.31
2023-05-04T23:42:25.525Z,6.25
2023-05-04T23:57:25.616Z,5.73
